Marin City, California
Current Conditions -  °F | °C
As of 10:56 AM on Friday 24 Oct 2014 (Local Time) from KSFO Reporting Station
Few Clouds Few Clouds  
Wind Chill: 68°   Ceiling: Unl
Heat Index: 68°   Visibility: 10mi
Dew Point: 59°   Wind: 7mph
Humidity: 73%   Direction: 100°E
Pressure: 29.96"   Gusts: NA
Location:  37.8489°N, 122.496°W
Report Text: KSFO 241756Z 10006KT 10SM FEW020 20/15 A2996 RMK AO2 SLP145 T02000150 10200 20156 50001
Loading
Personal Weather Stations






























Interactive Weather Map
Tropical Storm Tracking
New forecast layout! Learn more

10-Day Weather Forecast

Advertisements
Track Severe Weather on mobile